sensor_id;sensor_type;location;lat;lon;timestamp;temperature;humidity
33739;DHT22;20063;51.730;11.110;2024-01-15T00:02:00;1.70;99.90
33739;DHT22;20063;51.730;11.110;2024-01-15T00:04:26;1.70;99.90
33739;DHT22;20063;51.730;11.110;2024-01-15T00:06:53;1.70;99.90
33739;DHT22;20063;51.730;11.110;2024-01-15T00:09:18;1.70;99.90
33739;DHT22;20063;51.730;11.110;2024-01-15T00:11:44;1.60;99.90
33739;DHT22;20063;51.730;11.110;2024-01-15T00:14:10;1.60;99.90
33739;DHT22;20063;51.730;11.110;2024-01-15T00:16:35;1.60;99.90
33739;DHT22;20063;51.730;11.110;2024-01-15T00:19:03;1.60;99.90
33739;DHT22;20063;51.730;11.110;2024-01-15T00:21:28;1.60;99.90
33739;DHT22;20063;51.730;11.110;2024-01-15T00:23:54;1.60;99.90
33739;DHT22;20063;51.730;11.110;2024-01-15T00:26:20;1.60;99.90
33739;DHT22;20063;51.730;11.110;2024-01-15T00:28:46;1.60;99.90
33739;DHT22;20063;51.730;11.110;2024-01-15T00:31:11;1.60;99.90
33739;DHT22;20063;51.730;11.110;2024-01-15T00:33:37;1.60;99.90
33739;DHT22;20063;51.730;11.110;2024-01-15T00:36:03;1.60;99.90
33739;DHT22;20063;51.730;11.110;2024-01-15T00:38:28;1.60;99.90
33739;DHT22;20063;51.730;11.110;2024-01-15T00:40:54;1.60;99.90
33739;DHT22;20063;51.730;11.110;2024-01-15T00:43:20;1.60;99.90
33739;DHT22;20063;51.730;11.110;2024-01-15T00:45:46;1.60;99.90
33739;DHT22;20063;51.730;11.110;2024-01-15T00:48:12;1.60;99.90
33739;DHT22;20063;51.730;11.110;2024-01-15T00:50:38;1.60;99.90
33739;DHT22;20063;51.730;11.110;2024-01-15T00:53:03;1.60;99.90
33739;DHT22;20063;51.730;11.110;2024-01-15T00:55:29;1.60;99.90
33739;DHT22;20063;51.730;11.110;2024-01-15T00:57:55;1.60;99.90
33739;DHT22;20063;51.730;11.110;2024-01-15T01:00:21;1.60;99.90
33739;DHT22;20063;51.730;11.110;2024-01-15T01:02:48;1.60;99.90
33739;DHT22;20063;51.730;11.110;2024-01-15T01:05:13;1.60;99.90
33739;DHT22;20063;51.730;11.110;2024-01-15T01:07:39;1.50;99.90
33739;DHT22;20063;51.730;11.110;2024-01-15T01:10:05;1.60;99.90
33739;DHT22;20063;51.730;11.110;2024-01-15T01:12:32;1.60;99.90
33739;DHT22;20063;51.730;11.110;2024-01-15T01:14:57;1.70;99.90
33739;DHT22;20063;51.730;11.110;2024-01-15T01:17:24;1.60;99.90
33739;DHT22;20063;51.730;11.110;2024-01-15T01:19:50;1.60;99.90
33739;DHT22;20063;51.730;11.110;2024-01-15T01:22:15;1.60;99.90
33739;DHT22;20063;51.730;11.110;2024-01-15T01:24:41;1.60;99.90
33739;DHT22;20063;51.730;11.110;2024-01-15T01:27:08;1.60;99.90
33739;DHT22;20063;51.730;11.110;2024-01-15T01:29:34;1.60;99.90
33739;DHT22;20063;51.730;11.110;2024-01-15T01:32:00;1.60;99.90
33739;DHT22;20063;51.730;11.110;2024-01-15T01:34:25;1.60;99.90
33739;DHT22;20063;51.730;11.110;2024-01-15T01:36:51;1.60;99.90
33739;DHT22;20063;51.730;11.110;2024-01-15T01:39:17;1.50;99.90
33739;DHT22;20063;51.730;11.110;2024-01-15T01:41:42;1.50;99.90
33739;DHT22;20063;51.730;11.110;2024-01-15T01:44:09;1.50;99.90
33739;DHT22;20063;51.730;11.110;2024-01-15T01:46:37;1.50;99.90
33739;DHT22;20063;51.730;11.110;2024-01-15T01:49:10;1.50;99.90
33739;DHT22;20063;51.730;11.110;2024-01-15T01:51:38;1.50;99.90
33739;DHT22;20063;51.730;11.110;2024-01-15T01:54:05;1.50;99.90
33739;DHT22;20063;51.730;11.110;2024-01-15T01:56:35;1.50;99.90
33739;DHT22;20063;51.730;11.110;2024-01-15T01:59:02;1.50;99.90
33739;DHT22;20063;51.730;11.110;2024-01-15T02:01:30;1.50;99.90
33739;DHT22;20063;51.730;11.110;2024-01-15T02:03:56;1.50;99.90
33739;DHT22;20063;51.730;11.110;2024-01-15T02:06:23;1.50;99.90
33739;DHT22;20063;51.730;11.110;2024-01-15T02:08:49;1.60;99.90
33739;DHT22;20063;51.730;11.110;2024-01-15T02:11:15;1.60;99.90
33739;DHT22;20063;51.730;11.110;2024-01-15T02:13:41;1.60;99.90
33739;DHT22;20063;51.730;11.110;2024-01-15T02:16:07;1.60;99.90
33739;DHT22;20063;51.730;11.110;2024-01-15T02:18:45;1.60;99.90
33739;DHT22;20063;51.730;11.110;2024-01-15T02:21:11;1.70;99.90
33739;DHT22;20063;51.730;11.110;2024-01-15T02:23:40;1.60;99.90
33739;DHT22;20063;51.730;11.110;2024-01-15T02:26:05;1.70;99.90
33739;DHT22;20063;51.730;11.110;2024-01-15T02:28:32;1.70;99.90
33739;DHT22;20063;51.730;11.110;2024-01-15T02:31:02;1.70;99.90
33739;DHT22;20063;51.730;11.110;2024-01-15T02:33:27;1.70;99.90
33739;DHT22;20063;51.730;11.110;2024-01-15T02:35:53;1.70;99.90
33739;DHT22;20063;51.730;11.110;2024-01-15T02:38:19;1.70;99.90
33739;DHT22;20063;51.730;11.110;2024-01-15T02:40:46;1.80;99.90
33739;DHT22;20063;51.730;11.110;2024-01-15T02:43:12;1.70;99.90
33739;DHT22;20063;51.730;11.110;2024-01-15T02:45:39;1.70;99.90
33739;DHT22;20063;51.730;11.110;2024-01-15T02:48:04;1.70;99.90
33739;DHT22;20063;51.730;11.110;2024-01-15T02:50:30;1.70;99.90
33739;DHT22;20063;51.730;11.110;2024-01-15T02:52:56;1.60;99.90
33739;DHT22;20063;51.730;11.110;2024-01-15T02:55:21;1.60;99.90
33739;DHT22;20063;51.730;11.110;2024-01-15T02:57:48;1.60;99.90
33739;DHT22;20063;51.730;11.110;2024-01-15T03:00:14;1.60;99.90
33739;DHT22;20063;51.730;11.110;2024-01-15T03:02:40;1.60;99.90
33739;DHT22;20063;51.730;11.110;2024-01-15T03:05:09;1.60;99.90
33739;DHT22;20063;51.730;11.110;2024-01-15T03:07:34;1.50;99.90
33739;DHT22;20063;51.730;11.110;2024-01-15T03:10:00;1.50;99.90
33739;DHT22;20063;51.730;11.110;2024-01-15T03:12:26;1.50;99.90
33739;DHT22;20063;51.730;11.110;2024-01-15T03:14:51;1.50;99.90
33739;DHT22;20063;51.730;11.110;2024-01-15T03:17:17;1.50;99.90
33739;DHT22;20063;51.730;11.110;2024-01-15T03:19:43;1.40;99.90
33739;DHT22;20063;51.730;11.110;2024-01-15T03:22:09;1.50;99.90
33739;DHT22;20063;51.730;11.110;2024-01-15T03:24:35;1.50;99.90
33739;DHT22;20063;51.730;11.110;2024-01-15T03:27:01;1.50;99.90
33739;DHT22;20063;51.730;11.110;2024-01-15T03:29:28;1.50;99.90
33739;DHT22;20063;51.730;11.110;2024-01-15T03:31:54;1.40;99.90
33739;DHT22;20063;51.730;11.110;2024-01-15T03:34:19;1.50;99.90
33739;DHT22;20063;51.730;11.110;2024-01-15T03:36:45;1.40;99.90
33739;DHT22;20063;51.730;11.110;2024-01-15T03:39:13;1.50;99.90
33739;DHT22;20063;51.730;11.110;2024-01-15T03:41:39;1.50;99.90
33739;DHT22;20063;51.730;11.110;2024-01-15T03:44:05;1.50;99.90
33739;DHT22;20063;51.730;11.110;2024-01-15T03:46:34;1.50;99.90
33739;DHT22;20063;51.730;11.110;2024-01-15T03:48:59;1.50;99.90
33739;DHT22;20063;51.730;11.110;2024-01-15T03:51:25;1.60;99.90
33739;DHT22;20063;51.730;11.110;2024-01-15T03:53:51;1.60;99.90
33739;DHT22;20063;51.730;11.110;2024-01-15T03:56:16;1.60;99.90
33739;DHT22;20063;51.730;11.110;2024-01-15T03:58:42;1.60;99.90
33739;DHT22;20063;51.730;11.110;2024-01-15T04:01:09;1.60;99.90
33739;DHT22;20063;51.730;11.110;2024-01-15T04:03:36;1.60;99.90
33739;DHT22;20063;51.730;11.110;2024-01-15T04:06:04;1.70;99.90
33739;DHT22;20063;51.730;11.110;2024-01-15T04:08:30;1.70;99.90
33739;DHT22;20063;51.730;11.110;2024-01-15T04:10:55;1.70;99.90
33739;DHT22;20063;51.730;11.110;2024-01-15T04:13:21;1.60;99.90
33739;DHT22;20063;51.730;11.110;2024-01-15T04:15:48;1.60;99.90
33739;DHT22;20063;51.730;11.110;2024-01-15T04:18:16;1.60;99.90
33739;DHT22;20063;51.730;11.110;2024-01-15T04:20:41;1.60;99.90
33739;DHT22;20063;51.730;11.110;2024-01-15T04:23:07;1.60;99.90
33739;DHT22;20063;51.730;11.110;2024-01-15T04:25:32;1.50;99.90
33739;DHT22;20063;51.730;11.110;2024-01-15T04:27:58;1.50;99.90
33739;DHT22;20063;51.730;11.110;2024-01-15T04:30:24;1.50;99.90
33739;DHT22;20063;51.730;11.110;2024-01-15T04:32:50;1.50;99.90
33739;DHT22;20063;51.730;11.110;2024-01-15T04:35:15;1.50;99.90
33739;DHT22;20063;51.730;11.110;2024-01-15T04:37:41;1.50;99.90
33739;DHT22;20063;51.730;11.110;2024-01-15T04:40:07;1.50;99.90
33739;DHT22;20063;51.730;11.110;2024-01-15T04:42:33;1.50;99.90
33739;DHT22;20063;51.730;11.110;2024-01-15T04:44:59;1.50;99.90
33739;DHT22;20063;51.730;11.110;2024-01-15T04:47:25;1.50;99.90
33739;DHT22;20063;51.730;11.110;2024-01-15T04:49:51;1.50;99.90
33739;DHT22;20063;51.730;11.110;2024-01-15T04:52:16;1.50;99.90
33739;DHT22;20063;51.730;11.110;2024-01-15T04:54:42;1.60;99.90
33739;DHT22;20063;51.730;11.110;2024-01-15T04:57:08;1.60;99.90
33739;DHT22;20063;51.730;11.110;2024-01-15T04:59:33;1.60;99.90
33739;DHT22;20063;51.730;11.110;2024-01-15T05:01:59;1.60;99.90
33739;DHT22;20063;51.730;11.110;2024-01-15T05:04:25;1.60;99.90
33739;DHT22;20063;51.730;11.110;2024-01-15T05:06:50;1.60;99.90
33739;DHT22;20063;51.730;11.110;2024-01-15T05:09:16;1.50;99.90
33739;DHT22;20063;51.730;11.110;2024-01-15T05:11:43;1.50;99.90
33739;DHT22;20063;51.730;11.110;2024-01-15T05:14:09;1.50;99.90
33739;DHT22;20063;51.730;11.110;2024-01-15T05:16:34;1.50;99.90
33739;DHT22;20063;51.730;11.110;2024-01-15T05:19:00;1.50;99.90
33739;DHT22;20063;51.730;11.110;2024-01-15T05:21:26;1.50;99.90
33739;DHT22;20063;51.730;11.110;2024-01-15T05:23:51;1.50;99.90
33739;DHT22;20063;51.730;11.110;2024-01-15T05:26:17;1.50;99.90
33739;DHT22;20063;51.730;11.110;2024-01-15T05:28:44;1.50;99.90
33739;DHT22;20063;51.730;11.110;2024-01-15T05:31:10;1.50;99.90
33739;DHT22;20063;51.730;11.110;2024-01-15T05:33:37;1.50;99.90
33739;DHT22;20063;51.730;11.110;2024-01-15T05:36:03;1.50;99.90
33739;DHT22;20063;51.730;11.110;2024-01-15T05:38:29;1.50;99.90
33739;DHT22;20063;51.730;11.110;2024-01-15T05:40:54;1.50;99.90
33739;DHT22;20063;51.730;11.110;2024-01-15T05:43:20;1.60;99.90
33739;DHT22;20063;51.730;11.110;2024-01-15T05:45:45;1.60;99.90
33739;DHT22;20063;51.730;11.110;2024-01-15T05:48:11;1.60;99.90
33739;DHT22;20063;51.730;11.110;2024-01-15T05:50:41;1.70;99.90
33739;DHT22;20063;51.730;11.110;2024-01-15T05:53:08;1.70;99.90
33739;DHT22;20063;51.730;11.110;2024-01-15T05:55:36;1.70;99.90
33739;DHT22;20063;51.730;11.110;2024-01-15T05:58:04;1.70;99.90
33739;DHT22;20063;51.730;11.110;2024-01-15T06:00:29;1.70;99.90
33739;DHT22;20063;51.730;11.110;2024-01-15T06:02:55;1.70;99.90
33739;DHT22;20063;51.730;11.110;2024-01-15T06:05:20;1.70;99.90
33739;DHT22;20063;51.730;11.110;2024-01-15T06:07:46;1.70;99.90
33739;DHT22;20063;51.730;11.110;2024-01-15T06:10:12;1.70;99.90
33739;DHT22;20063;51.730;11.110;2024-01-15T06:12:37;1.70;99.90
33739;DHT22;20063;51.730;11.110;2024-01-15T06:15:03;1.70;99.90
33739;DHT22;20063;51.730;11.110;2024-01-15T06:17:29;1.70;99.90
33739;DHT22;20063;51.730;11.110;2024-01-15T06:19:54;1.70;99.90
33739;DHT22;20063;51.730;11.110;2024-01-15T06:22:20;1.70;99.90
33739;DHT22;20063;51.730;11.110;2024-01-15T06:24:45;1.70;99.90
33739;DHT22;20063;51.730;11.110;2024-01-15T06:27:11;1.60;99.90
33739;DHT22;20063;51.730;11.110;2024-01-15T06:29:38;1.60;99.90
33739;DHT22;20063;51.730;11.110;2024-01-15T06:32:04;1.60;99.90
33739;DHT22;20063;51.730;11.110;2024-01-15T06:34:30;1.60;99.90
33739;DHT22;20063;51.730;11.110;2024-01-15T06:36:56;1.60;99.90
33739;DHT22;20063;51.730;11.110;2024-01-15T06:39:21;1.60;99.90
33739;DHT22;20063;51.730;11.110;2024-01-15T06:41:47;1.50;99.90
33739;DHT22;20063;51.730;11.110;2024-01-15T06:44:13;1.40;99.90
33739;DHT22;20063;51.730;11.110;2024-01-15T06:46:42;1.40;99.90
33739;DHT22;20063;51.730;11.110;2024-01-15T06:49:08;1.40;99.90
33739;DHT22;20063;51.730;11.110;2024-01-15T06:51:35;1.30;99.90
33739;DHT22;20063;51.730;11.110;2024-01-15T06:54:01;1.40;99.90
33739;DHT22;20063;51.730;11.110;2024-01-15T06:56:27;1.40;99.90
33739;DHT22;20063;51.730;11.110;2024-01-15T06:58:52;1.40;99.90
33739;DHT22;20063;51.730;11.110;2024-01-15T07:01:18;1.40;99.90
33739;DHT22;20063;51.730;11.110;2024-01-15T07:03:43;1.40;99.90
33739;DHT22;20063;51.730;11.110;2024-01-15T07:06:10;1.30;99.90
33739;DHT22;20063;51.730;11.110;2024-01-15T07:08:36;1.30;99.90
33739;DHT22;20063;51.730;11.110;2024-01-15T07:11:05;1.30;99.90
33739;DHT22;20063;51.730;11.110;2024-01-15T07:13:32;1.30;99.90
33739;DHT22;20063;51.730;11.110;2024-01-15T07:15:58;1.30;99.90
33739;DHT22;20063;51.730;11.110;2024-01-15T07:18:24;1.40;99.90
33739;DHT22;20063;51.730;11.110;2024-01-15T07:20:50;1.40;99.90
33739;DHT22;20063;51.730;11.110;2024-01-15T07:23:16;1.50;99.90
33739;DHT22;20063;51.730;11.110;2024-01-15T07:25:43;1.50;99.90
33739;DHT22;20063;51.730;11.110;2024-01-15T07:28:09;1.50;99.90
33739;DHT22;20063;51.730;11.110;2024-01-15T07:30:34;1.40;99.90
33739;DHT22;20063;51.730;11.110;2024-01-15T07:33:00;1.50;99.90
33739;DHT22;20063;51.730;11.110;2024-01-15T07:35:26;1.40;99.90
33739;DHT22;20063;51.730;11.110;2024-01-15T07:37:53;1.40;99.90
33739;DHT22;20063;51.730;11.110;2024-01-15T07:40:18;1.40;99.90
33739;DHT22;20063;51.730;11.110;2024-01-15T07:42:44;1.40;99.90
33739;DHT22;20063;51.730;11.110;2024-01-15T07:45:10;1.50;99.90
33739;DHT22;20063;51.730;11.110;2024-01-15T07:47:37;1.50;99.90
33739;DHT22;20063;51.730;11.110;2024-01-15T07:50:06;1.50;99.90
33739;DHT22;20063;51.730;11.110;2024-01-15T07:52:33;1.40;99.90
33739;DHT22;20063;51.730;11.110;2024-01-15T07:54:59;1.40;99.90
33739;DHT22;20063;51.730;11.110;2024-01-15T07:57:29;1.40;99.90
33739;DHT22;20063;51.730;11.110;2024-01-15T07:59:54;1.30;99.90
33739;DHT22;20063;51.730;11.110;2024-01-15T08:02:20;1.30;99.90
33739;DHT22;20063;51.730;11.110;2024-01-15T08:04:47;1.30;99.90
33739;DHT22;20063;51.730;11.110;2024-01-15T08:07:16;1.30;99.90
33739;DHT22;20063;51.730;11.110;2024-01-15T08:09:41;1.30;99.90
33739;DHT22;20063;51.730;11.110;2024-01-15T08:12:07;1.30;99.90
33739;DHT22;20063;51.730;11.110;2024-01-15T08:14:33;1.30;99.90
33739;DHT22;20063;51.730;11.110;2024-01-15T08:16:58;1.40;99.90
33739;DHT22;20063;51.730;11.110;2024-01-15T08:19:24;1.40;99.90
33739;DHT22;20063;51.730;11.110;2024-01-15T08:21:49;1.40;99.90
33739;DHT22;20063;51.730;11.110;2024-01-15T08:24:15;1.40;99.90
33739;DHT22;20063;51.730;11.110;2024-01-15T08:26:42;1.50;99.90
33739;DHT22;20063;51.730;11.110;2024-01-15T08:29:07;1.50;99.90
33739;DHT22;20063;51.730;11.110;2024-01-15T08:31:33;1.50;99.90
33739;DHT22;20063;51.730;11.110;2024-01-15T08:33:59;1.50;99.90
33739;DHT22;20063;51.730;11.110;2024-01-15T08:36:27;1.50;99.90
33739;DHT22;20063;51.730;11.110;2024-01-15T08:38:53;1.50;99.90
33739;DHT22;20063;51.730;11.110;2024-01-15T08:41:19;1.50;99.90
33739;DHT22;20063;51.730;11.110;2024-01-15T08:43:44;1.40;99.90
33739;DHT22;20063;51.730;11.110;2024-01-15T08:46:10;1.50;99.90
33739;DHT22;20063;51.730;11.110;2024-01-15T08:48:39;1.50;99.90
33739;DHT22;20063;51.730;11.110;2024-01-15T08:51:05;1.50;99.90
33739;DHT22;20063;51.730;11.110;2024-01-15T08:53:31;1.50;99.90
33739;DHT22;20063;51.730;11.110;2024-01-15T08:55:56;1.50;99.90
33739;DHT22;20063;51.730;11.110;2024-01-15T08:58:23;1.50;99.90
33739;DHT22;20063;51.730;11.110;2024-01-15T09:00:49;1.50;99.90
33739;DHT22;20063;51.730;11.110;2024-01-15T09:03:16;1.50;99.90
33739;DHT22;20063;51.730;11.110;2024-01-15T09:05:41;1.50;99.90
33739;DHT22;20063;51.730;11.110;2024-01-15T09:08:08;1.50;99.90
33739;DHT22;20063;51.730;11.110;2024-01-15T09:10:34;1.50;99.90
33739;DHT22;20063;51.730;11.110;2024-01-15T09:12:59;1.60;99.90
33739;DHT22;20063;51.730;11.110;2024-01-15T09:15:25;1.50;99.90
33739;DHT22;20063;51.730;11.110;2024-01-15T09:17:51;1.50;99.90
33739;DHT22;20063;51.730;11.110;2024-01-15T09:20:16;1.60;99.90
33739;DHT22;20063;51.730;11.110;2024-01-15T09:22:42;1.60;99.90
33739;DHT22;20063;51.730;11.110;2024-01-15T09:25:11;1.60;99.90
33739;DHT22;20063;51.730;11.110;2024-01-15T09:27:39;1.60;99.90
33739;DHT22;20063;51.730;11.110;2024-01-15T09:30:05;1.70;99.90
33739;DHT22;20063;51.730;11.110;2024-01-15T09:32:31;1.70;99.90
33739;DHT22;20063;51.730;11.110;2024-01-15T09:34:58;1.70;99.90
33739;DHT22;20063;51.730;11.110;2024-01-15T09:37:24;1.70;99.90
33739;DHT22;20063;51.730;11.110;2024-01-15T09:39:49;1.70;99.90
33739;DHT22;20063;51.730;11.110;2024-01-15T09:42:15;1.80;99.90
33739;DHT22;20063;51.730;11.110;2024-01-15T09:44:41;1.80;99.90
33739;DHT22;20063;51.730;11.110;2024-01-15T09:47:07;1.80;99.90
33739;DHT22;20063;51.730;11.110;2024-01-15T09:49:33;1.70;99.90
33739;DHT22;20063;51.730;11.110;2024-01-15T09:52:01;1.70;99.90
33739;DHT22;20063;51.730;11.110;2024-01-15T09:54:27;1.70;99.90
33739;DHT22;20063;51.730;11.110;2024-01-15T09:56:54;1.70;99.90
33739;DHT22;20063;51.730;11.110;2024-01-15T09:59:20;1.70;99.90
33739;DHT22;20063;51.730;11.110;2024-01-15T10:01:50;1.80;99.90
33739;DHT22;20063;51.730;11.110;2024-01-15T10:04:16;1.80;99.90
33739;DHT22;20063;51.730;11.110;2024-01-15T10:06:45;1.80;99.90
33739;DHT22;20063;51.730;11.110;2024-01-15T10:09:14;1.80;99.90
33739;DHT22;20063;51.730;11.110;2024-01-15T10:11:41;1.80;99.90
33739;DHT22;20063;51.730;11.110;2024-01-15T10:14:13;1.90;99.90
33739;DHT22;20063;51.730;11.110;2024-01-15T10:16:45;2.00;99.90
33739;DHT22;20063;51.730;11.110;2024-01-15T10:19:11;2.00;99.90
33739;DHT22;20063;51.730;11.110;2024-01-15T10:21:37;2.00;99.90
33739;DHT22;20063;51.730;11.110;2024-01-15T10:24:04;2.00;99.90
33739;DHT22;20063;51.730;11.110;2024-01-15T10:26:30;2.10;99.90
33739;DHT22;20063;51.730;11.110;2024-01-15T10:28:56;2.10;99.90
33739;DHT22;20063;51.730;11.110;2024-01-15T10:31:21;2.10;99.90
33739;DHT22;20063;51.730;11.110;2024-01-15T10:33:50;2.10;99.90
33739;DHT22;20063;51.730;11.110;2024-01-15T10:36:17;2.10;99.90
33739;DHT22;20063;51.730;11.110;2024-01-15T10:38:46;2.10;99.90
33739;DHT22;20063;51.730;11.110;2024-01-15T10:41:12;2.10;99.90
33739;DHT22;20063;51.730;11.110;2024-01-15T10:43:38;2.10;99.90
33739;DHT22;20063;51.730;11.110;2024-01-15T10:46:06;2.20;99.90
33739;DHT22;20063;51.730;11.110;2024-01-15T10:48:33;2.10;99.90
33739;DHT22;20063;51.730;11.110;2024-01-15T10:51:01;2.10;99.90
33739;DHT22;20063;51.730;11.110;2024-01-15T10:53:39;2.10;99.90
33739;DHT22;20063;51.730;11.110;2024-01-15T10:56:07;2.20;99.90
33739;DHT22;20063;51.730;11.110;2024-01-15T10:58:33;2.10;99.90
33739;DHT22;20063;51.730;11.110;2024-01-15T11:00:59;2.10;99.90
33739;DHT22;20063;51.730;11.110;2024-01-15T11:03:25;2.10;99.90
33739;DHT22;20063;51.730;11.110;2024-01-15T11:05:53;2.10;99.90
33739;DHT22;20063;51.730;11.110;2024-01-15T11:08:20;2.10;99.90
33739;DHT22;20063;51.730;11.110;2024-01-15T11:10:51;2.10;99.90
33739;DHT22;20063;51.730;11.110;2024-01-15T11:16:02;2.10;99.90
33739;DHT22;20063;51.730;11.110;2024-01-15T11:18:36;2.10;99.90
33739;DHT22;20063;51.730;11.110;2024-01-15T11:23:46;2.10;99.90
33739;DHT22;20063;51.730;11.110;2024-01-15T11:29:06;2.00;99.90
33739;DHT22;20063;51.730;11.110;2024-01-15T11:34:07;2.00;99.90
33739;DHT22;20063;51.730;11.110;2024-01-15T11:42:02;2.20;99.90
33739;DHT22;20063;51.730;11.110;2024-01-15T11:44:30;2.30;99.90
33739;DHT22;20063;51.730;11.110;2024-01-15T11:47:06;2.30;99.90
33739;DHT22;20063;51.730;11.110;2024-01-15T11:52:20;2.40;99.90
33739;DHT22;20063;51.730;11.110;2024-01-15T11:57:46;2.40;99.90
33739;DHT22;20063;51.730;11.110;2024-01-15T12:00:14;2.40;99.90
33739;DHT22;20063;51.730;11.110;2024-01-15T12:02:41;2.30;99.90
33739;DHT22;20063;51.730;11.110;2024-01-15T12:05:12;2.40;99.90
33739;DHT22;20063;51.730;11.110;2024-01-15T12:07:42;2.40;99.90
33739;DHT22;20063;51.730;11.110;2024-01-15T12:10:12;2.40;99.90
33739;DHT22;20063;51.730;11.110;2024-01-15T12:13:00;2.40;99.90
33739;DHT22;20063;51.730;11.110;2024-01-15T12:15:29;2.50;99.90
33739;DHT22;20063;51.730;11.110;2024-01-15T12:17:56;2.50;99.90
33739;DHT22;20063;51.730;11.110;2024-01-15T12:20:26;2.50;99.90
33739;DHT22;20063;51.730;11.110;2024-01-15T12:22:52;2.50;99.90
33739;DHT22;20063;51.730;11.110;2024-01-15T12:25:18;2.40;99.90
33739;DHT22;20063;51.730;11.110;2024-01-15T12:27:44;2.40;99.90
33739;DHT22;20063;51.730;11.110;2024-01-15T12:30:11;2.40;99.90
33739;DHT22;20063;51.730;11.110;2024-01-15T12:32:37;2.40;99.90
33739;DHT22;20063;51.730;11.110;2024-01-15T12:35:06;2.30;99.90
33739;DHT22;20063;51.730;11.110;2024-01-15T12:37:32;2.20;99.90
33739;DHT22;20063;51.730;11.110;2024-01-15T12:39:59;2.10;99.90
33739;DHT22;20063;51.730;11.110;2024-01-15T12:42:25;2.10;99.90
33739;DHT22;20063;51.730;11.110;2024-01-15T12:44:50;2.00;99.90
33739;DHT22;20063;51.730;11.110;2024-01-15T12:47:16;2.00;99.90
33739;DHT22;20063;51.730;11.110;2024-01-15T12:49:47;1.90;99.90
33739;DHT22;20063;51.730;11.110;2024-01-15T12:52:14;2.00;99.90
33739;DHT22;20063;51.730;11.110;2024-01-15T12:54:40;2.00;99.90
33739;DHT22;20063;51.730;11.110;2024-01-15T12:57:05;2.10;99.90
33739;DHT22;20063;51.730;11.110;2024-01-15T12:59:31;2.10;99.90
33739;DHT22;20063;51.730;11.110;2024-01-15T13:01:57;2.20;99.90
33739;DHT22;20063;51.730;11.110;2024-01-15T13:04:23;2.20;99.90
33739;DHT22;20063;51.730;11.110;2024-01-15T13:06:50;2.20;99.90
33739;DHT22;20063;51.730;11.110;2024-01-15T13:09:16;2.30;99.90
33739;DHT22;20063;51.730;11.110;2024-01-15T13:11:43;2.30;99.90
33739;DHT22;20063;51.730;11.110;2024-01-15T13:14:08;2.30;99.90
33739;DHT22;20063;51.730;11.110;2024-01-15T13:16:34;2.30;99.90
33739;DHT22;20063;51.730;11.110;2024-01-15T13:18:59;2.30;99.90
33739;DHT22;20063;51.730;11.110;2024-01-15T13:21:25;2.40;99.90
33739;DHT22;20063;51.730;11.110;2024-01-15T13:23:50;2.40;99.90
33739;DHT22;20063;51.730;11.110;2024-01-15T13:26:16;2.40;99.90
33739;DHT22;20063;51.730;11.110;2024-01-15T13:28:44;2.30;99.90
33739;DHT22;20063;51.730;11.110;2024-01-15T13:31:09;2.30;99.90
33739;DHT22;20063;51.730;11.110;2024-01-15T13:33:35;2.30;99.90
33739;DHT22;20063;51.730;11.110;2024-01-15T13:36:01;2.30;99.90
33739;DHT22;20063;51.730;11.110;2024-01-15T13:38:27;2.20;99.90
33739;DHT22;20063;51.730;11.110;2024-01-15T13:40:53;2.20;99.90
33739;DHT22;20063;51.730;11.110;2024-01-15T13:43:20;2.20;99.90
33739;DHT22;20063;51.730;11.110;2024-01-15T13:45:46;2.10;99.90
33739;DHT22;20063;51.730;11.110;2024-01-15T13:48:12;2.10;99.90
33739;DHT22;20063;51.730;11.110;2024-01-15T13:50:37;2.00;99.90
33739;DHT22;20063;51.730;11.110;2024-01-15T13:53:04;2.00;99.90
33739;DHT22;20063;51.730;11.110;2024-01-15T13:55:30;1.90;99.90
33739;DHT22;20063;51.730;11.110;2024-01-15T13:57:56;1.90;99.90
33739;DHT22;20063;51.730;11.110;2024-01-15T14:00:21;1.80;99.90
33739;DHT22;20063;51.730;11.110;2024-01-15T14:02:48;1.80;99.90
33739;DHT22;20063;51.730;11.110;2024-01-15T14:05:14;1.80;99.90
33739;DHT22;20063;51.730;11.110;2024-01-15T14:07:40;1.80;99.90
33739;DHT22;20063;51.730;11.110;2024-01-15T14:10:06;1.90;99.90
33739;DHT22;20063;51.730;11.110;2024-01-15T14:12:35;1.90;99.90
33739;DHT22;20063;51.730;11.110;2024-01-15T14:15:04;1.90;99.90
33739;DHT22;20063;51.730;11.110;2024-01-15T14:17:32;2.00;99.90
33739;DHT22;20063;51.730;11.110;2024-01-15T14:19:58;1.90;99.90
33739;DHT22;20063;51.730;11.110;2024-01-15T14:22:24;1.90;99.90
33739;DHT22;20063;51.730;11.110;2024-01-15T14:24:50;2.00;99.90
33739;DHT22;20063;51.730;11.110;2024-01-15T14:27:16;2.00;99.90
33739;DHT22;20063;51.730;11.110;2024-01-15T14:29:42;1.90;99.90
33739;DHT22;20063;51.730;11.110;2024-01-15T14:32:07;2.00;99.90
33739;DHT22;20063;51.730;11.110;2024-01-15T14:34:33;2.00;99.90
33739;DHT22;20063;51.730;11.110;2024-01-15T14:37:02;2.00;99.90
33739;DHT22;20063;51.730;11.110;2024-01-15T14:39:28;2.00;99.90
33739;DHT22;20063;51.730;11.110;2024-01-15T14:41:54;2.00;99.90
33739;DHT22;20063;51.730;11.110;2024-01-15T14:44:20;2.00;99.90
33739;DHT22;20063;51.730;11.110;2024-01-15T14:46:46;2.00;99.90
33739;DHT22;20063;51.730;11.110;2024-01-15T14:49:11;2.00;99.90
33739;DHT22;20063;51.730;11.110;2024-01-15T14:51:37;2.00;99.90
33739;DHT22;20063;51.730;11.110;2024-01-15T14:54:04;2.00;99.90
33739;DHT22;20063;51.730;11.110;2024-01-15T14:56:30;1.90;99.90
33739;DHT22;20063;51.730;11.110;2024-01-15T14:58:56;1.90;99.90
33739;DHT22;20063;51.730;11.110;2024-01-15T15:01:22;1.80;99.90
33739;DHT22;20063;51.730;11.110;2024-01-15T15:03:48;1.80;99.90
33739;DHT22;20063;51.730;11.110;2024-01-15T15:06:14;1.80;99.90
33739;DHT22;20063;51.730;11.110;2024-01-15T15:08:39;1.80;99.90
33739;DHT22;20063;51.730;11.110;2024-01-15T15:11:06;1.70;99.90
33739;DHT22;20063;51.730;11.110;2024-01-15T15:13:32;1.70;99.90
33739;DHT22;20063;51.730;11.110;2024-01-15T15:15:57;1.70;99.90
33739;DHT22;20063;51.730;11.110;2024-01-15T15:18:24;1.60;99.90
33739;DHT22;20063;51.730;11.110;2024-01-15T15:20:51;1.70;99.90
33739;DHT22;20063;51.730;11.110;2024-01-15T15:23:18;1.70;99.90
33739;DHT22;20063;51.730;11.110;2024-01-15T15:25:44;1.60;99.90
33739;DHT22;20063;51.730;11.110;2024-01-15T15:28:09;1.60;99.90
33739;DHT22;20063;51.730;11.110;2024-01-15T15:30:37;1.60;99.90
33739;DHT22;20063;51.730;11.110;2024-01-15T15:33:02;1.60;99.90
33739;DHT22;20063;51.730;11.110;2024-01-15T15:35:31;1.60;99.90
33739;DHT22;20063;51.730;11.110;2024-01-15T15:37:56;1.60;99.90
33739;DHT22;20063;51.730;11.110;2024-01-15T15:40:23;1.60;99.90
33739;DHT22;20063;51.730;11.110;2024-01-15T15:42:52;1.60;99.90
33739;DHT22;20063;51.730;11.110;2024-01-15T15:45:18;1.50;99.90
33739;DHT22;20063;51.730;11.110;2024-01-15T15:47:44;1.50;99.90